createdAt,value
2022-09-09T00:02:06.032Z,99997.81
2022-09-09T00:05:20.673Z,100003.50
2022-09-09T00:08:46.504Z,100004.81
2022-09-09T00:11:54.677Z,100007.06
2022-09-09T00:15:03.327Z,100012.59
2022-09-09T00:18:20.728Z,99999.56
2022-09-09T00:21:28.698Z,99985.50
2022-09-09T00:24:41.788Z,99982.06
2022-09-09T00:27:51.000Z,99974.88
2022-09-09T00:30:55.454Z,99973.53
2022-09-09T00:34:06.365Z,99980.22
2022-09-09T00:37:11.688Z,99975.00
2022-09-09T00:40:27.370Z,99970.84
2022-09-09T00:43:32.812Z,99973.28
2022-09-09T00:47:03.874Z,99975.09
2022-09-09T00:50:25.559Z,99975.91
2022-09-09T00:53:43.001Z,99979.13
2022-09-09T00:57:02.283Z,99977.34
2022-09-09T01:00:26.688Z,99976.34
2022-09-09T01:03:37.935Z,99970.94
2022-09-09T01:06:41.719Z,99978.53
2022-09-09T01:09:59.472Z,99984.53
2022-09-09T01:13:14.752Z,99983.19
2022-09-09T01:16:19.676Z,99992.94
2022-09-09T01:19:40.219Z,99994.75
2022-09-09T01:22:59.118Z,99997.66
2022-09-09T01:26:23.568Z,99994.66
2022-09-09T01:29:27.527Z,99988.59
2022-09-09T01:32:44.571Z,99992.19
2022-09-09T01:35:55.350Z,100011.31
2022-09-09T01:39:00.838Z,99997.06
2022-09-09T01:42:09.002Z,100006.34
2022-09-09T01:45:12.445Z,99995.56
2022-09-09T01:48:15.806Z,99989.19
2022-09-09T01:51:22.468Z,99992.72
2022-09-09T01:54:32.466Z,99990.91
2022-09-09T01:57:49.467Z,99987.59
2022-09-09T02:01:08.857Z,99989.84
2022-09-09T02:04:36.274Z,99994.78
2022-09-09T02:07:48.808Z,99999.00
2022-09-09T02:11:07.920Z,99999.38
2022-09-09T02:14:25.294Z,100003.63
2022-09-09T02:17:32.425Z,100010.81
2022-09-09T02:20:43.375Z,100002.38
2022-09-09T02:23:50.295Z,100012.56
2022-09-09T02:26:56.428Z,100007.81
2022-09-09T02:30:04.079Z,99998.00
2022-09-09T02:33:16.244Z,99996.75
2022-09-09T02:36:26.423Z,99992.47
2022-09-09T02:39:29.689Z,100000.78
2022-09-09T02:42:32.906Z,100007.13
2022-09-09T02:45:47.494Z,100009.69
2022-09-09T02:49:02.656Z,100001.44
2022-09-09T02:52:17.152Z,100000.16
2022-09-09T02:55:26.671Z,99997.19
2022-09-09T02:58:33.501Z,99990.00
2022-09-09T03:01:42.631Z,99991.94
2022-09-09T03:04:51.895Z,99990.59
2022-09-09T03:07:55.883Z,99994.09
2022-09-09T03:11:02.295Z,100015.25
2022-09-09T03:14:09.415Z,100012.81
2022-09-09T03:17:14.850Z,100018.25
2022-09-09T03:20:26.854Z,100026.25
2022-09-09T03:23:30.328Z,100014.38
2022-09-09T03:26:35.930Z,100020.56
2022-09-09T03:29:40.191Z,100018.25
2022-09-09T03:32:49.071Z,100023.25
2022-09-09T03:35:52.520Z,100021.13
2022-09-09T03:38:57.534Z,100021.59
2022-09-09T03:42:04.808Z,100016.88
2022-09-09T03:45:11.890Z,100010.22
2022-09-09T03:48:20.008Z,100025.03
2022-09-09T03:51:23.474Z,100024.41
2022-09-09T03:54:28.284Z,100031.28
2022-09-09T03:57:35.813Z,100023.56
2022-09-09T04:00:43.259Z,100025.22
2022-09-09T04:03:47.828Z,100022.63
2022-09-09T04:06:52.008Z,100021.09
2022-09-09T04:09:55.509Z,100018.50
2022-09-09T04:12:58.529Z,100012.34
2022-09-09T04:16:04.589Z,100016.06
2022-09-09T04:19:09.696Z,100019.25
2022-09-09T04:22:12.709Z,100017.06
2022-09-09T04:25:17.683Z,100018.41
2022-09-09T04:28:24.385Z,100022.00
2022-09-09T04:31:28.027Z,100036.34
2022-09-09T04:34:34.471Z,100035.50
2022-09-09T04:37:38.144Z,100029.31
2022-09-09T04:40:43.813Z,100032.47
2022-09-09T04:43:47.399Z,100039.34
2022-09-09T04:46:51.892Z,100032.47
2022-09-09T04:49:56.172Z,100033.69
2022-09-09T04:53:04.628Z,100034.38
2022-09-09T04:56:13.568Z,100043.72
2022-09-09T04:59:21.449Z,100046.44
2022-09-09T05:02:31.753Z,100042.56
2022-09-09T05:05:37.632Z,100048.88
2022-09-09T05:08:42.226Z,100037.97
2022-09-09T05:11:45.943Z,100035.91
2022-09-09T05:14:58.531Z,100035.81
2022-09-09T05:18:03.423Z,100035.53
2022-09-09T05:21:09.598Z,100034.41
2022-09-09T05:24:12.904Z,100029.72
2022-09-09T05:27:16.553Z,100033.53
2022-09-09T05:30:20.187Z,100027.13
2022-09-09T05:33:23.407Z,100025.84
2022-09-09T05:36:28.064Z,100027.06
2022-09-09T05:39:33.976Z,100025.66
2022-09-09T05:42:37.133Z,100020.50
2022-09-09T05:45:40.916Z,100011.06
2022-09-09T05:48:47.623Z,100014.72
2022-09-09T05:52:01.865Z,100021.97
2022-09-09T05:55:06.219Z,100026.50
2022-09-09T05:58:10.240Z,100033.41
2022-09-09T06:01:17.068Z,100040.91
2022-09-09T06:04:22.506Z,100045.84
2022-09-09T06:07:27.414Z,100042.75
2022-09-09T06:10:31.100Z,100059.84
2022-09-09T06:13:34.774Z,100071.81
2022-09-09T06:16:39.599Z,100072.19
2022-09-09T06:19:49.008Z,100077.50
2022-09-09T06:22:53.308Z,100073.22
2022-09-09T06:26:06.543Z,100075.91
2022-09-09T06:29:11.426Z,100078.56
2022-09-09T06:32:14.545Z,100079.75
2022-09-09T06:35:17.596Z,100087.56
2022-09-09T06:38:22.633Z,100103.38
2022-09-09T06:41:29.164Z,100099.78
2022-09-09T06:44:35.582Z,100115.53
2022-09-09T06:47:41.214Z,100123.78
2022-09-09T06:50:44.796Z,100113.00
2022-09-09T06:53:51.847Z,100121.94
2022-09-09T06:56:55.024Z,100137.88
2022-09-09T07:00:00.348Z,100127.56
2022-09-09T07:03:03.425Z,100147.56
2022-09-09T07:06:08.332Z,100143.50
2022-09-09T07:09:16.022Z,100148.28
2022-09-09T07:12:21.819Z,100148.94
2022-09-09T07:15:31.406Z,100149.19
2022-09-09T07:18:35.688Z,100171.91
2022-09-09T07:21:41.207Z,100169.88
2022-09-09T07:24:46.800Z,100197.00
2022-09-09T07:27:51.491Z,100201.44
2022-09-09T07:30:56.380Z,100221.53
2022-09-09T07:34:00.701Z,100229.28
2022-09-09T07:37:04.154Z,100249.28
2022-09-09T07:40:11.221Z,100236.50
2022-09-09T07:43:17.321Z,100227.81
2022-09-09T07:46:23.095Z,100227.19
2022-09-09T07:49:31.051Z,100247.28
2022-09-09T07:52:36.986Z,100257.47
2022-09-09T07:55:43.780Z,100256.53
2022-09-09T07:58:48.416Z,100274.28
2022-09-09T08:01:55.412Z,100281.41
2022-09-09T08:05:01.132Z,100282.06
2022-09-09T08:08:05.363Z,100280.88
2022-09-09T08:11:13.212Z,100292.41
2022-09-09T08:14:16.450Z,100298.97
2022-09-09T08:17:19.791Z,100327.47
2022-09-09T08:20:24.208Z,100382.19
2022-09-09T08:23:27.564Z,100379.38
2022-09-09T08:26:35.285Z,100403.28
2022-09-09T08:29:40.100Z,100418.91
2022-09-09T08:32:45.953Z,100406.88
2022-09-09T08:35:53.795Z,100395.53
2022-09-09T08:38:59.058Z,100394.34
2022-09-09T08:42:27.107Z,100415.31
2022-09-09T08:45:36.536Z,100386.75
2022-09-09T08:48:57.618Z,100384.66
2022-09-09T08:52:02.302Z,100352.94
2022-09-09T08:55:23.729Z,100333.78
2022-09-09T08:58:31.209Z,100332.81
2022-09-09T09:01:48.041Z,100313.28
2022-09-09T09:05:10.696Z,100336.09
2022-09-09T09:08:23.532Z,100350.19
2022-09-09T09:11:27.177Z,100366.16
2022-09-09T09:14:35.261Z,100361.72
2022-09-09T09:17:40.928Z,100413.75
2022-09-09T09:21:02.616Z,100450.41
2022-09-09T09:24:19.737Z,100497.91
2022-09-09T09:27:34.613Z,100510.41
2022-09-09T09:30:46.878Z,100492.94
2022-09-09T09:33:54.065Z,100539.16
2022-09-09T09:37:02.829Z,100547.81
2022-09-09T09:40:13.378Z,100549.22
2022-09-09T09:43:22.440Z,100527.53
2022-09-09T09:46:28.367Z,100553.88
2022-09-09T09:49:37.813Z,100551.97
2022-09-09T09:52:43.727Z,100568.63
2022-09-09T09:55:56.448Z,100581.59
2022-09-09T09:59:01.856Z,100597.97
2022-09-09T10:02:25.759Z,100546.88
2022-09-09T10:05:38.255Z,100593.47
2022-09-09T10:08:48.361Z,100614.16
2022-09-09T10:12:01.699Z,100632.53
2022-09-09T10:15:31.945Z,100632.22
2022-09-09T10:18:52.544Z,100637.84
2022-09-09T10:22:19.093Z,100637.69
2022-09-09T10:25:54.543Z,100626.72
2022-09-09T10:29:17.422Z,100652.50
2022-09-09T10:32:39.176Z,100649.09
2022-09-09T10:35:54.036Z,100656.09
2022-09-09T10:39:03.354Z,100660.94
2022-09-09T10:42:10.206Z,100655.16
2022-09-09T10:45:21.144Z,100647.59
2022-09-09T10:48:39.374Z,100634.41
2022-09-09T10:51:54.726Z,100648.88
2022-09-09T10:55:03.596Z,100648.06
2022-09-09T10:58:09.401Z,100599.59
2022-09-09T11:01:19.451Z,100633.16
2022-09-09T11:04:27.907Z,100638.06
2022-09-09T11:07:40.368Z,100642.41
2022-09-09T11:10:53.411Z,100636.00
2022-09-09T11:14:03.308Z,100629.44
2022-09-09T11:17:13.094Z,100651.16
2022-09-09T11:20:16.681Z,100644.34
2022-09-09T11:23:28.804Z,100645.22
2022-09-09T11:26:38.825Z,100658.19
2022-09-09T11:30:03.789Z,100662.41
2022-09-09T11:33:33.164Z,100666.09
2022-09-09T11:37:17.039Z,100674.75
2022-09-09T11:40:26.601Z,100671.50
2022-09-09T11:43:33.782Z,100668.25
2022-09-09T11:46:40.531Z,100661.34
2022-09-09T11:49:46.542Z,100665.03
2022-09-09T11:52:50.929Z,100662.13
2022-09-09T11:56:08.342Z,100660.81
2022-09-09T11:59:25.276Z,100653.50
2022-09-09T12:02:32.004Z,100644.97
2022-09-09T12:05:41.409Z,100644.13
2022-09-09T12:08:47.442Z,100636.56
2022-09-09T12:11:52.473Z,100636.56
2022-09-09T12:15:22.940Z,100626.00
2022-09-09T12:18:27.852Z,100629.38
2022-09-09T12:21:41.716Z,100636.72
2022-09-09T12:24:51.920Z,100619.84
2022-09-09T12:28:08.677Z,100633.00
2022-09-09T12:31:21.034Z,100624.00
2022-09-09T12:34:42.126Z,100630.97
2022-09-09T12:37:51.048Z,100630.59
2022-09-09T12:40:58.296Z,100626.66
2022-09-09T12:44:08.914Z,100619.00
2022-09-09T12:47:14.436Z,100610.75
2022-09-09T12:50:21.508Z,100609.19
2022-09-09T12:53:28.073Z,100598.50
2022-09-09T12:56:33.498Z,100606.69
2022-09-09T12:59:41.287Z,100603.94
2022-09-09T13:02:53.937Z,100608.97
2022-09-09T13:06:12.528Z,100618.81
2022-09-09T13:12:23.475Z,100617.56
2022-09-09T13:15:30.861Z,100620.06
2022-09-09T13:18:36.807Z,100604.69
2022-09-09T13:21:41.419Z,100612.25
2022-09-09T13:24:44.676Z,100606.53
2022-09-09T13:27:58.019Z,100602.47
2022-09-09T13:31:04.370Z,100602.91
2022-09-09T13:34:14.978Z,100595.94
2022-09-09T13:37:26.413Z,100600.53
2022-09-09T13:40:29.605Z,100572.72
2022-09-09T13:43:37.617Z,100590.84
2022-09-09T13:46:44.039Z,100586.97
2022-09-09T13:49:47.279Z,100564.41
2022-09-09T13:52:52.093Z,100574.56
2022-09-09T13:55:55.619Z,100588.13
2022-09-09T13:58:58.773Z,100595.94
2022-09-09T14:02:03.417Z,100598.81
2022-09-09T14:05:07.283Z,100599.78
2022-09-09T14:08:26.308Z,100600.56
2022-09-09T14:11:29.626Z,100591.31
2022-09-09T14:14:32.663Z,100592.25
2022-09-09T14:17:37.116Z,100586.44
2022-09-09T14:20:40.181Z,100590.38
2022-09-09T14:23:43.627Z,100582.19
2022-09-09T14:26:46.743Z,100586.66
2022-09-09T14:29:49.716Z,100584.00
2022-09-09T14:32:53.973Z,100585.63
2022-09-09T14:35:58.956Z,100582.59
2022-09-09T14:39:01.889Z,100573.25
2022-09-09T14:42:05.357Z,100576.31
2022-09-09T14:45:10.534Z,100571.13
2022-09-09T14:48:15.605Z,100583.53
2022-09-09T14:51:22.056Z,100598.47
2022-09-09T14:54:25.063Z,100604.69
2022-09-09T14:57:28.329Z,100593.25
2022-09-09T15:00:31.609Z,100589.94
2022-09-09T15:03:36.022Z,100582.06
2022-09-09T15:06:40.137Z,100586.31
2022-09-09T15:09:43.132Z,100580.72
2022-09-09T15:12:46.618Z,100592.75
2022-09-09T15:15:50.918Z,100584.09
2022-09-09T15:18:57.650Z,100578.41
2022-09-09T15:22:01.299Z,100548.59
2022-09-09T15:25:05.130Z,100552.13
2022-09-09T15:28:08.067Z,100570.66
2022-09-09T15:31:18.433Z,100588.16
2022-09-09T15:34:23.011Z,100596.16
2022-09-09T15:37:25.919Z,100588.44
2022-09-09T15:40:28.827Z,100583.31
2022-09-09T15:43:31.814Z,100566.88
2022-09-09T15:46:38.404Z,100567.06
2022-09-09T15:49:43.850Z,100561.22
2022-09-09T15:52:46.966Z,100553.81
2022-09-09T15:55:54.322Z,100532.94
2022-09-09T15:59:00.513Z,100543.16
2022-09-09T16:02:03.973Z,100541.13
2022-09-09T16:05:09.832Z,100543.72
2022-09-09T16:08:14.105Z,100530.44
2022-09-09T16:11:20.798Z,100537.09
2022-09-09T16:14:23.808Z,100538.94
2022-09-09T16:17:28.582Z,100553.34
2022-09-09T16:20:33.150Z,100579.59
2022-09-09T16:23:37.096Z,100582.06
2022-09-09T16:26:43.910Z,100567.25
2022-09-09T16:29:46.915Z,100560.13
2022-09-09T16:32:50.194Z,100557.88
2022-09-09T16:35:54.487Z,100547.06
2022-09-09T16:38:59.938Z,100546.06
2022-09-09T16:42:04.018Z,100560.38
2022-09-09T16:45:08.143Z,100550.00
2022-09-09T16:48:11.635Z,100565.22
2022-09-09T16:51:19.725Z,100572.81
2022-09-09T16:54:24.373Z,100563.81
2022-09-09T16:57:29.657Z,100540.06
2022-09-09T17:00:32.659Z,100546.47
2022-09-09T17:03:35.718Z,100544.56
2022-09-09T17:06:40.077Z,100543.47
2022-09-09T17:09:43.366Z,100536.53
2022-09-09T17:12:47.058Z,100537.16
2022-09-09T17:15:50.101Z,100524.03
2022-09-09T17:18:53.542Z,100530.47
2022-09-09T17:22:16.342Z,100548.53
2022-09-09T17:25:20.682Z,100547.59
2022-09-09T17:28:27.182Z,100539.38
2022-09-09T17:31:33.465Z,100537.59
2022-09-09T17:34:37.157Z,100550.16
2022-09-09T17:37:41.451Z,100543.19
2022-09-09T17:40:44.627Z,100525.56
2022-09-09T17:43:48.417Z,100534.38
2022-09-09T17:46:51.491Z,100533.75
2022-09-09T17:49:54.472Z,100557.28
2022-09-09T17:52:58.736Z,100578.78
2022-09-09T17:56:06.077Z,100564.13
2022-09-09T17:59:11.232Z,100564.34
2022-09-09T18:02:14.259Z,100554.41
2022-09-09T18:05:19.098Z,100555.09
2022-09-09T18:08:23.363Z,100542.94
2022-09-09T18:11:28.707Z,100538.16
2022-09-09T18:14:34.236Z,100542.63
2022-09-09T18:20:45.553Z,100554.00
2022-09-09T18:23:52.112Z,100535.03
2022-09-09T18:26:55.205Z,100544.25
2022-09-09T18:29:58.177Z,100545.22
2022-09-09T18:33:01.121Z,100543.06
2022-09-09T18:36:09.273Z,100539.09
2022-09-09T18:39:15.615Z,100546.50
2022-09-09T18:42:18.561Z,100540.22
2022-09-09T18:45:22.634Z,100529.66
2022-09-09T18:48:25.881Z,100506.59
2022-09-09T18:51:30.760Z,100521.59
2022-09-09T18:54:35.044Z,100520.75
2022-09-09T18:57:38.835Z,100510.34
2022-09-09T19:00:41.861Z,100513.81
2022-09-09T19:03:44.895Z,100516.09
2022-09-09T19:06:49.550Z,100503.75
2022-09-09T19:09:53.829Z,100517.25
2022-09-09T19:12:57.245Z,100528.63
2022-09-09T19:16:05.594Z,100527.94
2022-09-09T19:19:12.816Z,100529.75
2022-09-09T19:22:15.786Z,100534.84
2022-09-09T19:25:20.252Z,100534.69
2022-09-09T19:28:23.163Z,100530.38
2022-09-09T19:31:27.935Z,100519.28
2022-09-09T19:34:31.157Z,100532.09
2022-09-09T19:37:34.689Z,100527.78
2022-09-09T19:40:39.897Z,100530.59
2022-09-09T19:43:43.033Z,100519.41
2022-09-09T19:46:47.253Z,100537.66
2022-09-09T19:49:51.453Z,100533.38
2022-09-09T19:52:55.753Z,100526.59
2022-09-09T19:56:04.329Z,100535.75
2022-09-09T19:59:09.638Z,100536.81
2022-09-09T20:02:15.405Z,100542.59
2022-09-09T20:05:18.735Z,100545.66
2022-09-09T20:08:21.769Z,100542.22
2022-09-09T20:11:27.079Z,100558.97
2022-09-09T20:14:30.077Z,100559.09
2022-09-09T20:17:33.019Z,100546.41
2022-09-09T20:20:41.565Z,100547.00
2022-09-09T20:23:46.216Z,100554.69
2022-09-09T20:26:50.740Z,100550.94
2022-09-09T20:29:53.888Z,100548.44
2022-09-09T20:32:57.107Z,100547.63
2022-09-09T20:36:05.077Z,100535.06
2022-09-09T20:39:11.066Z,100539.69
2022-09-09T20:42:15.327Z,100534.72
2022-09-09T20:45:18.311Z,100508.72
2022-09-09T20:48:21.289Z,100502.56
2022-09-09T20:51:26.024Z,100501.41
2022-09-09T20:54:31.116Z,100503.47
2022-09-09T20:57:38.348Z,100490.03
2022-09-09T21:00:41.274Z,100488.97
2022-09-09T21:03:45.235Z,100478.44
2022-09-09T21:06:50.063Z,100474.03
2022-09-09T21:09:53.034Z,100475.50
2022-09-09T21:12:58.391Z,100482.94
2022-09-09T21:16:01.935Z,100472.72
2022-09-09T21:19:05.270Z,100469.28
2022-09-09T21:22:08.283Z,100474.69
2022-09-09T21:25:11.622Z,100469.06
2022-09-09T21:28:17.282Z,100473.78
2022-09-09T21:31:27.012Z,100472.91
2022-09-09T21:34:30.989Z,100479.81
2022-09-09T21:37:34.244Z,100473.19
2022-09-09T21:40:39.100Z,100477.78
2022-09-09T21:43:46.839Z,100479.03
2022-09-09T21:46:49.787Z,100482.00
2022-09-09T21:49:52.735Z,100478.38
2022-09-09T21:52:55.942Z,100476.34
2022-09-09T21:56:03.204Z,100477.47
2022-09-09T21:59:08.095Z,100477.31
2022-09-09T22:02:11.725Z,100476.94
2022-09-09T22:05:14.752Z,100473.19
2022-09-09T22:08:18.176Z,100471.38
2022-09-09T22:11:24.729Z,100465.59
2022-09-09T22:14:29.242Z,100470.00
2022-09-09T22:17:32.166Z,100476.09
2022-09-09T22:20:41.714Z,100476.34
2022-09-09T22:23:46.573Z,100473.56
2022-09-09T22:26:50.036Z,100478.72
2022-09-09T22:29:54.439Z,100468.38
2022-09-09T22:32:57.975Z,100450.44
2022-09-09T22:36:00.902Z,100449.69
2022-09-09T22:39:04.651Z,100439.31
2022-09-09T22:42:07.967Z,100440.94
2022-09-09T22:45:12.635Z,100439.25
2022-09-09T22:48:16.774Z,100435.25
2022-09-09T22:51:19.729Z,100433.06
2022-09-09T22:54:23.552Z,100428.63
2022-09-09T22:57:26.757Z,100427.19
2022-09-09T23:00:31.055Z,100423.47
2022-09-09T23:03:34.152Z,100426.91
2022-09-09T23:06:38.465Z,100421.34
2022-09-09T23:09:41.376Z,100419.25
2022-09-09T23:12:44.401Z,100418.44
2022-09-09T23:15:49.692Z,100400.94
2022-09-09T23:18:55.115Z,100409.97
2022-09-09T23:21:58.294Z,100394.28
2022-09-09T23:25:01.846Z,100388.19
2022-09-09T23:28:05.233Z,100385.44
2022-09-09T23:31:12.954Z,100379.53
2022-09-09T23:34:16.227Z,100375.66
2022-09-09T23:37:19.467Z,100372.06
2022-09-09T23:40:23.067Z,100371.44
2022-09-09T23:43:26.692Z,100366.34
2022-09-09T23:46:33.343Z,100351.94
2022-09-09T23:49:39.233Z,100351.69
2022-09-09T23:52:43.845Z,100352.50
2022-09-09T23:55:46.788Z,100340.69
2022-09-09T23:58:50.542Z,100344.25
